Flight Track Log - Related Links

Times and Time Zones

All times are in EDT time to prevent confusion due to time zone crossing. See the JIA2328 flight status page for this flight to view local times or setup timezone preferences in your user account.

Time Position Orientation Groundspeed Altitude Reporting Facility
EDT Latitude Longitude Course Direction KTS MPH feet Rate Location/Type
Sat 07:45:51 AM 39.8667 -75.2833 218° Southwest 164 189 800  Level Philadelphia TRACON
Sat 07:46:15 AM 39.8500 -75.3000 218° Southwest 185 213 1,800 2,571 Climbing Philadelphia TRACON
Sat 07:47:15 AM 39.7833 -75.3333 201° Southwest 251 289 4,400 2,629 Climbing Philadelphia TRACON
Sat 07:49:29 AM 39.7058 -75.2339 135° Southeast 182 209 10,300 2,338 Climbing New York Center
Sat 07:50:30 AM 39.7219 -75.1406 77° East 243 280 12,000 843 Climbing New York Center
Sat 07:51:30 AM 39.7433 -75.0122 78° East 303 349 12,000 149 Level New York Center
Sat 07:52:31 AM 39.7617 -74.9081 77° East 334 384 12,300 1,261 Climbing New York Center
Sat 07:53:29 AM 39.7853 -74.7717 77° East 339 390 14,500 2,370 Climbing New York Center
Sat 07:54:30 AM 39.8300 -74.6742 95° East 314 361 17,000 2,300 Climbing New York Center
Sat 07:55:29 AM 39.9031 -74.6078 35° Northeast 309 356 19,100 1,950 Climbing New York Center
Sat 07:56:30 AM 39.9783 -74.5389 35° Northeast 309 356 20,900 942 Climbing New York Center
Sat 07:57:30 AM 40.0600 -74.4592 37° Northeast 339 390 21,000 50 Climbing New York Center
Sat 07:58:30 AM 40.1483 -74.3717 37° Northeast 370 426 21,000 50 Level New York Center
Sat 07:59:31 AM 40.2383 -74.2867 36° Northeast 385 443 21,100 958 Climbing New York Center
Sat 08:00:29 AM 40.3242 -74.2039 36° Northeast 390 449 22,900 1,017 Climbing New York Center
Sat 08:01:29 AM 40.4100 -74.1183 37° Northeast 390 449 23,100 541 Climbing New York Center
Sat 08:02:31 AM 40.4956 -74.0350 37° Northeast 380 437 24,000 281 Climbing New York Center
Sat 08:04:41 AM 40.6889 -73.8469 36° Northeast 390 449 24,000  Level Boston Center
Sat 08:05:41 AM 40.7775 -73.7583 37° Northeast 390 449 24,000  Level Boston Center
Sat 08:06:41 AM 40.8642 -73.6669 39° Northeast 390 449 24,000 -200 Level Boston Center
Sat 08:07:41 AM 40.9483 -73.5833 37° Northeast 385 443 23,600 -500 Descending Boston Center
Sat 08:08:41 AM 41.0367 -73.5078 33° Northeast 379 436 23,000 -500 Descending Boston Center
Sat 08:09:41 AM 41.1367 -73.4983 North 361 415 22,600 -750 Descending Boston Center
Sat 08:10:41 AM 41.2303 -73.5028 358° North 348 400 21,500 -1,250 Descending Boston Center
Sat 08:11:41 AM 41.3261 -73.5069 358° North 343 395 20,100 -1,150 Descending Boston Center
Sat 08:12:41 AM 41.4097 -73.5028 North 348 400 19,200 -750 Descending Boston Center
Sat 08:13:41 AM 41.5242 -73.5103 357° North 348 400 18,600 -900 Descending Boston Center
Sat 08:14:41 AM 41.6117 -73.5119 359° North 348 400 17,400 -1,500 Descending Boston Center
Sat 08:15:41 AM 41.7114 -73.5358 350° North 343 395 15,600 -1,950 Descending Boston Center
Sat 08:16:41 AM 41.7967 -73.5567 350° North 343 395 13,500 -2,200 Descending Boston Center
Sat 08:17:41 AM 41.8903 -73.5836 348° North 323 372 11,200 -1,220 Descending Boston Center
Sat 08:18:44 AM 41.9756 -73.6044 350° North 314 361 11,000 -114 Descending Boston Center
Sat 08:19:26 AM 42.0483 -73.6228 349° North 340 391 11,000  Level Boston Center
Sat 08:19:53 AM 42.0897 -73.6347 348° North 326 375 11,000  Level Boston Center
Sat 08:20:27 AM 42.1439 -73.6525 346° North 349 402 11,000  Level Boston Center
Sat 08:20:53 AM 42.1833 -73.6700 342° North 338 389 11,000 -100 Level Boston Center
Sat 08:21:27 AM 42.2353 -73.6878 346° North 343 395 10,900 -600 Descending Boston Center
Sat 08:21:53 AM 42.2683 -73.6997 345° North 332 382 10,400 -1,475 Descending Boston Center
Sat 08:22:28 AM 42.3119 -73.7119 348° North 275 316 9,400 -1,600 Descending Boston Center
Sat 08:22:53 AM 42.3431 -73.7239 344° North 301 346 8,800 -1,672 Descending Boston Center
Sat 08:23:29 AM 42.3825 -73.7386 345° North 260 299 7,700 -2,000 Descending Boston Center
Sat 08:23:53 AM 42.4117 -73.7478 347° North 262 302 6,800 -1,900 Descending Boston Center
Sat 08:24:29 AM 42.4489 -73.7625 344° North 247 284 5,800 -1,700 Descending Boston Center
Sat 08:24:53 AM 42.4761 -73.7686 351° North 244 281 5,100 -1,770 Descending Boston Center
Sat 08:25:30 AM 42.5092 -73.7806 345° North 220 253 4,000 -1,900 Descending Boston Center
Sat 08:25:53 AM 42.5342 -73.7897 345° North 223 257 3,200 -1,000 Descending Boston Center
Sat 08:26:30 AM 42.5672 -73.7989 348° North 190 219 3,000 -200 Descending Boston Center
Sat 08:26:53 AM 42.5839 -73.7992 359° North 206 237 3,000 -98 Level Boston Center
Sat 08:27:31 AM 42.6089 -73.8025 354° North 144 166 2,900 -158 Descending Boston Center

Login

Don't have an account? Register now (free) for customized features, flight alerts, and more!